createdAt,value
2019-01-11T00:02:12.023Z,6.40
2019-01-11T00:04:43.110Z,6.70
2019-01-11T00:07:14.102Z,6.20
2019-01-11T00:09:44.052Z,6.80
2019-01-11T00:12:13.550Z,6.60
2019-01-11T00:14:50.844Z,6.10
2019-01-11T00:17:22.548Z,6.43
2019-01-11T00:19:52.181Z,6.60
2019-01-11T00:22:25.789Z,6.70
2019-01-11T00:25:07.213Z,6.60
2019-01-11T00:27:36.436Z,7.27
2019-01-11T00:30:09.942Z,6.57
2019-01-11T00:32:40.480Z,6.80
2019-01-11T00:35:11.575Z,6.73
2019-01-11T00:37:44.902Z,6.67
2019-01-11T00:40:19.364Z,6.30
2019-01-11T00:42:54.370Z,6.60
2019-01-11T00:45:28.177Z,6.43
2019-01-11T00:47:59.679Z,6.60
2019-01-11T00:50:33.906Z,6.43
2019-01-11T00:53:06.282Z,6.83
2019-01-11T00:55:40.103Z,7.50
2019-01-11T00:58:14.339Z,10.87
2019-01-11T01:00:47.726Z,7.83
2019-01-11T01:03:21.195Z,7.60
2019-01-11T01:05:56.126Z,6.57
2019-01-11T01:08:33.923Z,8.20
2019-01-11T01:11:04.516Z,10.03
2019-01-11T01:13:33.831Z,16.00
2019-01-11T01:16:05.713Z,12.63
2019-01-11T01:18:37.048Z,8.00
2019-01-11T01:21:06.840Z,7.10
2019-01-11T01:23:38.392Z,12.00
2019-01-11T01:26:10.573Z,8.57
2019-01-11T01:28:40.309Z,7.93
2019-01-11T01:31:10.598Z,11.83
2019-01-11T01:33:41.219Z,8.90
2019-01-11T01:36:10.884Z,16.23
2019-01-11T01:38:40.965Z,8.93
2019-01-11T01:41:11.679Z,9.00
2019-01-11T01:43:40.935Z,8.43
2019-01-11T01:46:10.526Z,11.60
2019-01-11T01:48:40.341Z,9.50
2019-01-11T01:51:09.570Z,9.40
2019-01-11T01:53:42.462Z,9.93
2019-01-11T01:56:12.646Z,10.17
2019-01-11T01:58:42.214Z,10.50
2019-01-11T02:01:12.166Z,10.03
2019-01-11T02:03:46.507Z,9.83
2019-01-11T02:06:16.019Z,10.47
2019-01-11T02:08:47.124Z,10.57
2019-01-11T02:11:17.947Z,10.47
2019-01-11T02:13:59.324Z,10.37
2019-01-11T02:16:30.416Z,12.57
2019-01-11T02:19:02.630Z,10.87
2019-01-11T02:21:33.685Z,10.63
2019-01-11T02:24:03.174Z,10.90
2019-01-11T02:26:34.322Z,11.87
2019-01-11T02:29:13.219Z,13.00
2019-01-11T02:31:46.399Z,13.03
2019-01-11T02:34:18.944Z,13.00
2019-01-11T02:36:48.274Z,11.60
2019-01-11T02:39:17.740Z,11.63
2019-01-11T02:41:48.460Z,10.67
2019-01-11T02:44:20.936Z,11.33
2019-01-11T02:46:51.843Z,11.77
2019-01-11T02:49:23.446Z,11.77
2019-01-11T02:52:00.021Z,11.30
2019-01-11T02:54:31.453Z,11.43
2019-01-11T02:57:07.668Z,11.07
2019-01-11T02:59:40.386Z,11.50
2019-01-11T03:02:12.374Z,11.53
2019-01-11T03:04:43.251Z,11.47
2019-01-11T03:07:15.613Z,12.80
2019-01-11T03:09:45.945Z,12.80
2019-01-11T03:12:16.929Z,13.33
2019-01-11T03:14:49.745Z,13.97
2019-01-11T03:17:21.301Z,13.20
2019-01-11T03:19:57.658Z,14.73
2019-01-11T03:22:30.253Z,11.60
2019-01-11T03:25:05.440Z,12.27
2019-01-11T03:27:37.375Z,10.57
2019-01-11T03:30:14.860Z,11.47
2019-01-11T03:32:48.255Z,11.60
2019-01-11T03:35:24.757Z,11.73
2019-01-11T03:37:56.360Z,12.13
2019-01-11T03:40:31.102Z,11.97
2019-01-11T03:43:02.572Z,12.53
2019-01-11T03:45:34.973Z,13.30
2019-01-11T03:48:09.141Z,15.50
2019-01-11T03:50:41.144Z,12.83
2019-01-11T03:53:23.127Z,13.80
2019-01-11T03:55:54.112Z,15.00
2019-01-11T03:58:27.593Z,15.33
2019-01-11T04:00:58.010Z,14.63
2019-01-11T04:03:36.091Z,15.83
2019-01-11T04:06:11.332Z,15.83
2019-01-11T04:08:40.871Z,16.23
2019-01-11T04:11:10.554Z,16.87
2019-01-11T04:13:40.402Z,16.07
2019-01-11T04:16:10.215Z,16.43
2019-01-11T04:19:00.924Z,15.90
2019-01-11T04:21:30.746Z,16.07
2019-01-11T04:24:00.020Z,15.80
2019-01-11T04:26:30.705Z,15.83
2019-01-11T04:28:59.925Z,16.87
2019-01-11T04:31:36.476Z,16.60
2019-01-11T04:34:07.182Z,15.83
2019-01-11T04:36:41.760Z,16.70
2019-01-11T04:39:13.559Z,16.47
2019-01-11T04:41:45.283Z,17.30
2019-01-11T04:44:22.862Z,17.33
2019-01-11T04:46:54.119Z,17.17
2019-01-11T04:49:26.905Z,16.90
2019-01-11T04:52:01.545Z,17.50
2019-01-11T04:54:32.906Z,17.23
2019-01-11T04:57:05.013Z,16.20
2019-01-11T04:59:34.471Z,17.27
2019-01-11T05:02:05.150Z,17.50
2019-01-11T05:04:36.285Z,18.20
2019-01-11T05:07:08.417Z,19.53
2019-01-11T05:09:40.107Z,17.60
2019-01-11T05:12:13.308Z,16.90
2019-01-11T05:14:45.766Z,16.37
2019-01-11T05:17:16.765Z,17.03
2019-01-11T05:19:48.092Z,17.00
2019-01-11T05:22:17.655Z,17.10
2019-01-11T05:24:59.988Z,17.50
2019-01-11T05:27:30.961Z,17.40
2019-01-11T05:30:01.706Z,18.87
2019-01-11T05:32:32.816Z,16.47
2019-01-11T05:35:03.472Z,15.60
2019-01-11T05:37:34.666Z,16.03
2019-01-11T05:40:08.289Z,15.50
2019-01-11T05:42:40.941Z,15.97
2019-01-11T05:45:13.333Z,15.13
2019-01-11T05:47:42.585Z,16.43
2019-01-11T05:50:14.874Z,16.53
2019-01-11T05:52:44.173Z,16.17
2019-01-11T05:55:50.157Z,15.97
2019-01-11T05:58:38.695Z,16.00
2019-01-11T06:01:10.004Z,16.20
2019-01-11T06:03:44.244Z,16.63
2019-01-11T06:06:21.541Z,17.47
2019-01-11T06:09:14.448Z,16.93
2019-01-11T06:11:46.349Z,17.03
2019-01-11T06:14:24.637Z,18.00
2019-01-11T06:16:58.538Z,17.27
2019-01-11T06:19:31.357Z,21.10
2019-01-11T06:22:06.127Z,17.67
2019-01-11T06:24:43.704Z,17.30
2019-01-11T06:27:21.803Z,17.50
2019-01-11T06:29:53.855Z,18.40
2019-01-11T06:32:28.420Z,18.03
2019-01-11T06:35:05.081Z,20.57
2019-01-11T06:37:40.913Z,21.70
2019-01-11T06:40:14.089Z,18.43
2019-01-11T06:43:16.668Z,22.03
2019-01-11T06:45:49.864Z,20.13
2019-01-11T06:48:43.304Z,22.70
2019-01-11T06:51:21.182Z,18.10
2019-01-11T06:53:52.249Z,18.27
2019-01-11T06:56:26.222Z,19.23
2019-01-11T06:59:21.840Z,18.57
2019-01-11T07:01:52.157Z,18.23
2019-01-11T07:04:31.568Z,17.07
2019-01-11T07:07:04.076Z,18.67
2019-01-11T07:09:35.369Z,16.00
2019-01-11T07:12:20.427Z,16.00
2019-01-11T07:15:16.230Z,16.83
2019-01-11T07:18:08.838Z,15.67
2019-01-11T07:20:43.004Z,16.10
2019-01-11T07:23:14.853Z,20.70
2019-01-11T07:25:51.907Z,18.10
2019-01-11T07:28:23.299Z,15.70
2019-01-11T07:31:16.294Z,15.27
2019-01-11T07:33:51.493Z,16.27
2019-01-11T07:36:35.646Z,16.13
2019-01-11T07:39:27.951Z,14.50
2019-01-11T07:41:57.808Z,16.33
2019-01-11T07:44:28.668Z,15.00
2019-01-11T07:47:08.823Z,16.03
2019-01-11T07:49:42.626Z,17.53
2019-01-11T07:52:18.532Z,18.23
2019-01-11T07:54:51.347Z,17.70
2019-01-11T07:57:21.602Z,17.63
2019-01-11T07:59:55.044Z,18.00
2019-01-11T08:02:24.825Z,18.50
2019-01-11T08:04:57.981Z,20.60
2019-01-11T08:07:27.678Z,18.63
2019-01-11T08:09:59.224Z,20.53
2019-01-11T08:12:29.689Z,20.27
2019-01-11T08:15:01.382Z,19.43
2019-01-11T08:17:31.811Z,19.00
2019-01-11T08:20:01.664Z,18.57
2019-01-11T08:22:37.868Z,19.43
2019-01-11T08:25:11.847Z,17.13
2019-01-11T08:27:46.255Z,20.80
2019-01-11T08:30:26.978Z,20.97
2019-01-11T08:33:18.687Z,18.17
2019-01-11T08:35:59.752Z,17.87
2019-01-11T08:38:57.439Z,17.00
2019-01-11T08:41:31.168Z,17.57
2019-01-11T08:44:12.305Z,16.20
2019-01-11T08:46:42.119Z,16.80
2019-01-11T08:49:23.354Z,17.73
2019-01-11T08:52:00.259Z,16.40
2019-01-11T08:54:30.889Z,17.77
2019-01-11T08:57:05.460Z,16.20
2019-01-11T08:59:35.416Z,17.20
2019-01-11T09:02:10.983Z,16.43
2019-01-11T09:04:41.864Z,16.23
2019-01-11T09:07:16.952Z,15.83
2019-01-11T09:09:50.593Z,15.67
2019-01-11T09:12:22.360Z,18.00
2019-01-11T09:14:54.063Z,17.37
2019-01-11T09:17:23.620Z,17.33
2019-01-11T09:19:53.327Z,29.30
2019-01-11T09:22:31.350Z,16.30
2019-01-11T09:25:10.044Z,21.13
2019-01-11T09:27:55.583Z,18.37
2019-01-11T09:30:26.077Z,19.67
2019-01-11T09:32:55.856Z,16.10
2019-01-11T09:35:29.328Z,16.50
2019-01-11T09:37:59.926Z,18.10
2019-01-11T09:40:29.935Z,16.13
2019-01-11T09:43:02.670Z,18.13
2019-01-11T09:45:32.612Z,16.23
2019-01-11T09:48:25.924Z,19.07
2019-01-11T09:51:00.839Z,17.83
2019-01-11T09:53:35.292Z,18.77
2019-01-11T09:56:17.436Z,18.93
2019-01-11T09:58:47.440Z,18.27
2019-01-11T10:01:18.558Z,23.83
2019-01-11T10:03:48.896Z,21.57
2019-01-11T10:06:21.039Z,19.50
2019-01-11T10:08:50.835Z,19.47
2019-01-11T10:11:23.919Z,20.77
2019-01-11T10:14:03.829Z,19.83
2019-01-11T10:16:35.488Z,21.30
2019-01-11T10:19:06.471Z,19.07
2019-01-11T10:21:35.915Z,18.47
2019-01-11T10:24:05.796Z,19.73
2019-01-11T10:26:36.274Z,18.17
2019-01-11T10:29:06.339Z,18.53
2019-01-11T10:31:36.666Z,20.93
2019-01-11T10:34:06.345Z,18.53
2019-01-11T10:36:36.415Z,18.17
2019-01-11T10:39:09.634Z,19.13
2019-01-11T10:41:39.639Z,19.83
2019-01-11T10:44:09.217Z,18.33
2019-01-11T10:46:49.057Z,18.40
2019-01-11T10:49:17.843Z,17.37
2019-01-11T10:51:48.183Z,18.50
2019-01-11T10:54:36.400Z,17.60
2019-01-11T10:57:05.934Z,19.20
2019-01-11T10:59:35.286Z,17.37
2019-01-11T11:02:04.904Z,17.97
2019-01-11T11:04:35.181Z,18.13
2019-01-11T11:07:05.540Z,18.43
2019-01-11T11:09:38.241Z,19.97
2019-01-11T11:12:11.318Z,18.60
2019-01-11T11:14:40.944Z,18.70
2019-01-11T11:17:11.124Z,19.50
2019-01-11T11:19:44.122Z,19.77
2019-01-11T11:22:17.178Z,20.30
2019-01-11T11:24:49.860Z,20.43
2019-01-11T11:27:19.367Z,22.03
2019-01-11T11:29:48.949Z,23.07
2019-01-11T11:32:29.265Z,22.97
2019-01-11T11:34:58.973Z,20.93
2019-01-11T11:37:29.677Z,20.33
2019-01-11T11:40:03.060Z,18.97
2019-01-11T11:42:37.470Z,21.00
2019-01-11T11:45:07.668Z,20.17
2019-01-11T11:47:37.796Z,19.93
2019-01-11T11:50:08.894Z,19.87
2019-01-11T11:52:39.945Z,19.67
2019-01-11T11:55:12.893Z,17.87
2019-01-11T11:57:42.448Z,19.30
2019-01-11T12:00:17.403Z,19.57
2019-01-11T12:02:46.661Z,20.03
2019-01-11T12:05:22.667Z,20.00
2019-01-11T12:07:54.654Z,22.37
2019-01-11T12:10:24.043Z,23.80
2019-01-11T12:12:54.416Z,24.27
2019-01-11T12:15:23.988Z,24.13
2019-01-11T12:17:53.505Z,21.27
2019-01-11T12:20:33.203Z,23.10
2019-01-11T12:23:05.197Z,21.00
2019-01-11T12:25:34.724Z,22.70
2019-01-11T12:28:04.348Z,21.07
2019-01-11T12:30:34.226Z,21.27
2019-01-11T12:33:07.064Z,22.13
2019-01-11T12:35:39.252Z,30.27
2019-01-11T12:38:13.675Z,22.87
2019-01-11T12:40:41.808Z,23.37
2019-01-11T12:43:11.481Z,20.40
2019-01-11T12:45:41.035Z,22.27
2019-01-11T12:48:10.295Z,21.03
2019-01-11T12:50:42.220Z,21.30
2019-01-11T12:53:12.749Z,19.87
2019-01-11T12:55:43.154Z,20.40
2019-01-11T12:58:13.144Z,20.53
2019-01-11T13:00:42.516Z,21.20
2019-01-11T13:03:15.139Z,21.23
2019-01-11T13:05:45.232Z,21.27
2019-01-11T13:08:47.368Z,20.40
2019-01-11T13:11:25.563Z,20.60
2019-01-11T13:14:14.217Z,21.03
2019-01-11T13:17:05.547Z,19.13
2019-01-11T13:20:08.441Z,19.33
2019-01-11T13:23:13.361Z,19.83
2019-01-11T13:25:52.574Z,21.90
2019-01-11T13:28:29.234Z,19.50
2019-01-11T13:31:06.671Z,20.07
2019-01-11T13:33:43.665Z,19.63
2019-01-11T13:36:20.976Z,20.10
2019-01-11T13:39:01.494Z,19.90
2019-01-11T13:41:55.235Z,19.87
2019-01-11T13:44:28.615Z,19.30
2019-01-11T13:47:02.810Z,19.20
2019-01-11T13:50:04.320Z,20.23
2019-01-11T13:52:40.696Z,20.60
2019-01-11T13:55:27.962Z,21.83
2019-01-11T13:57:58.102Z,20.77
2019-01-11T14:00:29.147Z,22.17
2019-01-11T14:03:30.640Z,19.87
2019-01-11T14:06:05.851Z,20.43
2019-01-11T14:08:40.290Z,20.17
2019-01-11T14:11:09.963Z,19.10
2019-01-11T14:13:48.917Z,20.07
2019-01-11T14:16:36.520Z,20.33
2019-01-11T14:19:07.546Z,19.93
2019-01-11T14:21:37.668Z,20.03
2019-01-11T14:24:07.187Z,19.73
2019-01-11T14:26:37.598Z,20.10
2019-01-11T14:29:09.407Z,20.00
2019-01-11T14:31:38.725Z,21.60
2019-01-11T14:34:08.672Z,20.57
2019-01-11T14:36:38.728Z,20.03
2019-01-11T14:39:10.255Z,19.73
2019-01-11T14:41:39.559Z,20.70
2019-01-11T14:44:08.820Z,20.20
2019-01-11T14:46:38.041Z,22.03
2019-01-11T14:49:11.275Z,21.63
2019-01-11T14:51:40.883Z,21.70
2019-01-11T14:54:14.942Z,20.57
2019-01-11T14:56:44.556Z,20.57
2019-01-11T14:59:16.918Z,22.03
2019-01-11T15:01:47.351Z,21.67
2019-01-11T15:04:16.963Z,21.67
2019-01-11T15:06:47.064Z,21.10
2019-01-11T15:09:16.701Z,22.37
2019-01-11T15:11:45.924Z,20.97
2019-01-11T15:14:15.473Z,21.63
2019-01-11T15:16:44.741Z,21.83
2019-01-11T15:19:15.660Z,21.03
2019-01-11T15:21:46.394Z,21.57
2019-01-11T15:24:16.382Z,23.00
2019-01-11T15:26:46.523Z,22.47
2019-01-11T15:29:15.909Z,25.17
2019-01-11T15:31:45.751Z,25.03
2019-01-11T15:34:16.746Z,23.40
2019-01-11T15:36:46.420Z,25.13
2019-01-11T15:39:19.549Z,23.87
2019-01-11T15:41:56.304Z,32.83
2019-01-11T15:44:59.010Z,23.63
2019-01-11T15:47:29.297Z,24.27
2019-01-11T15:50:25.086Z,24.80
2019-01-11T15:53:06.474Z,24.07
2019-01-11T15:55:37.897Z,24.37
2019-01-11T15:58:09.935Z,23.73
2019-01-11T16:00:53.379Z,23.60
2019-01-11T16:03:34.405Z,24.63
2019-01-11T16:06:36.093Z,24.70
2019-01-11T16:10:02.612Z,23.30
2019-01-11T16:13:14.046Z,23.80
2019-01-11T16:16:30.328Z,26.03
2019-01-11T16:19:03.346Z,25.17
2019-01-11T16:21:33.545Z,26.47
2019-01-11T16:24:09.385Z,27.57
2019-01-11T16:26:39.538Z,24.33
2019-01-11T16:29:09.697Z,27.27
2019-01-11T16:31:44.028Z,25.50
2019-01-11T16:34:15.733Z,26.00
2019-01-11T16:36:45.850Z,24.70
2019-01-11T16:39:26.041Z,25.37
2019-01-11T16:41:55.899Z,24.93
2019-01-11T16:44:25.812Z,24.17
2019-01-11T16:46:55.105Z,26.73
2019-01-11T16:49:24.350Z,28.37
2019-01-11T16:51:54.193Z,25.87
2019-01-11T16:54:23.443Z,25.73
2019-01-11T16:56:54.836Z,24.83
2019-01-11T16:59:26.847Z,24.43
2019-01-11T17:02:10.811Z,22.50
2019-01-11T17:04:40.191Z,24.97
2019-01-11T17:07:11.441Z,24.63
2019-01-11T17:09:51.580Z,25.17
2019-01-11T17:12:27.641Z,27.57
2019-01-11T17:15:02.478Z,25.07
2019-01-11T17:17:35.246Z,24.27
2019-01-11T17:20:06.478Z,25.60
2019-01-11T17:22:39.257Z,26.57
2019-01-11T17:25:09.664Z,26.13
2019-01-11T17:27:46.271Z,29.43
2019-01-11T17:30:21.418Z,25.30
2019-01-11T17:32:51.636Z,21.57
2019-01-11T17:35:50.032Z,22.87
2019-01-11T17:38:41.549Z,23.60
2019-01-11T17:41:13.362Z,25.97
2019-01-11T17:43:49.588Z,24.80
2019-01-11T17:46:20.701Z,25.57
2019-01-11T17:48:49.968Z,25.13
2019-01-11T17:51:22.139Z,26.67
2019-01-11T17:53:52.081Z,25.53
2019-01-11T17:56:21.307Z,24.53
2019-01-11T17:58:51.269Z,25.43
2019-01-11T18:01:26.224Z,27.90
2019-01-11T18:03:55.796Z,26.73
2019-01-11T18:06:26.809Z,24.10
2019-01-11T18:09:04.366Z,25.23
2019-01-11T18:11:41.381Z,24.70
2019-01-11T18:14:10.669Z,24.97
2019-01-11T18:16:59.731Z,25.03
2019-01-11T18:19:47.756Z,23.70
2019-01-11T18:22:19.306Z,26.97
2019-01-11T18:24:50.741Z,28.33
2019-01-11T18:27:21.619Z,27.77
2019-01-11T18:30:09.761Z,27.47
2019-01-11T18:32:39.759Z,26.43
2019-01-11T18:35:09.977Z,25.97
2019-01-11T18:37:45.783Z,25.87
2019-01-11T18:40:18.202Z,26.07
2019-01-11T18:43:09.050Z,26.77
2019-01-11T18:45:56.406Z,25.23
2019-01-11T18:48:26.915Z,26.27
2019-01-11T18:50:56.311Z,25.53
2019-01-11T18:53:26.661Z,24.90
2019-01-11T18:55:56.803Z,25.37
2019-01-11T18:58:31.365Z,25.80
2019-01-11T19:01:01.158Z,25.57
2019-01-11T19:03:47.493Z,29.87
2019-01-11T19:06:31.361Z,27.70
2019-01-11T19:09:05.468Z,26.70
2019-01-11T19:11:53.403Z,26.57
2019-01-11T19:14:26.899Z,26.13
2019-01-11T19:16:59.257Z,25.97
2019-01-11T19:19:32.610Z,25.33
2019-01-11T19:22:05.553Z,28.23
2019-01-11T19:24:36.418Z,29.77
2019-01-11T19:27:14.719Z,27.70
2019-01-11T19:29:51.501Z,28.00
2019-01-11T19:32:24.267Z,27.63
2019-01-11T19:35:11.673Z,29.60
2019-01-11T19:38:02.478Z,28.00
2019-01-11T19:40:59.374Z,31.23
2019-01-11T19:43:56.213Z,26.33
2019-01-11T19:46:37.224Z,25.47
2019-01-11T19:49:17.491Z,36.33
2019-01-11T19:52:15.081Z,32.20
2019-01-11T19:54:52.115Z,31.70
2019-01-11T19:57:37.846Z,29.83
2019-01-11T20:00:19.591Z,27.53
2019-01-11T20:02:50.779Z,29.13
2019-01-11T20:05:21.918Z,26.53
2019-01-11T20:07:54.032Z,25.77
2019-01-11T20:10:35.425Z,26.23
2019-01-11T20:13:09.629Z,24.20
2019-01-11T20:15:45.633Z,25.37
2019-01-11T20:18:31.845Z,25.40
2019-01-11T20:21:04.726Z,25.97
2019-01-11T20:23:37.043Z,38.90
2019-01-11T20:26:32.804Z,32.40
2019-01-11T20:29:04.562Z,35.77
2019-01-11T20:31:38.216Z,27.50
2019-01-11T20:34:08.642Z,27.60
2019-01-11T20:36:48.294Z,24.60
2019-01-11T20:39:19.258Z,24.50
2019-01-11T20:41:52.221Z,24.03
2019-01-11T20:44:23.338Z,23.87
2019-01-11T20:47:08.387Z,24.23
2019-01-11T20:50:06.717Z,23.00
2019-01-11T20:52:48.336Z,23.70
2019-01-11T20:55:27.294Z,28.70
2019-01-11T20:58:11.164Z,25.30
2019-01-11T21:00:45.848Z,24.50
2019-01-11T21:03:19.148Z,26.87
2019-01-11T21:06:08.783Z,26.20
2019-01-11T21:09:01.357Z,25.20
2019-01-11T21:11:35.132Z,24.87
2019-01-11T21:14:06.653Z,30.43
2019-01-11T21:16:36.256Z,24.67
2019-01-11T21:19:08.396Z,25.37
2019-01-11T21:22:04.124Z,24.47
2019-01-11T21:25:00.177Z,28.37
2019-01-11T21:27:48.513Z,25.37
2019-01-11T21:30:45.007Z,27.63
2019-01-11T21:33:23.200Z,24.77
2019-01-11T21:36:01.368Z,24.10
2019-01-11T21:38:36.012Z,25.53
2019-01-11T21:41:12.487Z,25.50
2019-01-11T21:43:44.049Z,22.57
2019-01-11T21:46:14.289Z,25.83
2019-01-11T21:48:45.895Z,25.07
2019-01-11T21:51:15.432Z,24.00
2019-01-11T21:53:44.679Z,25.53
2019-01-11T21:56:14.253Z,25.37
2019-01-11T21:58:45.938Z,30.10
2019-01-11T22:01:29.303Z,25.33
2019-01-11T22:04:02.079Z,25.03
2019-01-11T22:06:33.606Z,24.63
2019-01-11T22:09:08.409Z,27.50
2019-01-11T22:11:38.358Z,24.60
2019-01-11T22:14:09.141Z,24.43
2019-01-11T22:16:39.949Z,23.97
2019-01-11T22:19:10.304Z,27.07
2019-01-11T22:21:39.613Z,26.17
2019-01-11T22:24:09.154Z,26.07
2019-01-11T22:26:38.425Z,24.57
2019-01-11T22:29:08.749Z,24.47
2019-01-11T22:31:38.308Z,24.17
2019-01-11T22:34:08.632Z,23.00
2019-01-11T22:36:37.731Z,24.93
2019-01-11T22:39:09.286Z,24.07
2019-01-11T22:41:38.889Z,26.90
2019-01-11T22:44:08.137Z,27.90
2019-01-11T22:46:37.764Z,26.13
2019-01-11T22:49:07.825Z,28.87
2019-01-11T22:51:37.083Z,25.77
2019-01-11T22:54:10.323Z,27.73
2019-01-11T22:56:37.313Z,26.13
2019-01-11T22:59:07.339Z,23.60
2019-01-11T23:01:50.851Z,22.80
2019-01-11T23:04:21.376Z,22.90
2019-01-11T23:07:19.726Z,24.90
2019-01-11T23:09:55.772Z,31.93
2019-01-11T23:12:45.997Z,44.60
2019-01-11T23:15:23.128Z,34.03
2019-01-11T23:18:19.040Z,29.83
2019-01-11T23:20:50.830Z,26.23
2019-01-11T23:23:20.854Z,26.17
2019-01-11T23:25:50.086Z,22.93
2019-01-11T23:28:19.393Z,23.63
2019-01-11T23:30:48.630Z,23.00
2019-01-11T23:33:17.875Z,22.10
2019-01-11T23:35:47.106Z,22.70
2019-01-11T23:38:16.364Z,23.03
2019-01-11T23:40:45.625Z,26.57
2019-01-11T23:43:14.891Z,26.80
2019-01-11T23:45:44.664Z,22.87
2019-01-11T23:48:13.777Z,26.30
2019-01-11T23:50:43.385Z,23.77
2019-01-11T23:53:13.008Z,22.97
2019-01-11T23:55:42.270Z,23.37
2019-01-11T23:58:11.539Z,23.03
